Time;durP1;ratioP1;P1;durP2;ratioP2;P2;SDS_P1;SDS_P2;PMS_P1;PMS_P2;Temp;Humidity;BMP_temperature;BMP_pressure;BME280_temperature;BME280_humidity;BME280_pressure;Samples;Min_cycle;Max_cycle;Signal;HPM_P1;HPM_P2
2023/08/03 00:01:28;;;;;;;3.80;1.23;;;;;;;15.46;100.00;98909.25;5032357;28;20030;-77
2023/08/03 00:03:53;;;;;;;2.70;1.30;;;;;;;15.46;100.00;98921.66;5031249;28;20055;-77
2023/08/03 00:06:19;;;;;;;3.45;1.50;;;;;;;15.47;100.00;98907.41;5048239;28;20017;-77
2023/08/03 00:08:44;;;;;;;2.97;1.33;;;;;;;15.47;100.00;98910.88;5045980;28;20033;-77
2023/08/03 00:11:10;;;;;;;4.70;1.70;;;;;;;15.49;100.00;98919.44;5033841;28;20031;-77
2023/08/03 00:13:35;;;;;;;4.68;1.88;;;;;;;15.49;100.00;98922.09;5040230;28;20488;-77
2023/08/03 00:16:00;;;;;;;5.55;2.40;;;;;;;15.52;100.00;98920.91;5049092;28;20021;-78
2023/08/03 00:18:26;;;;;;;8.48;2.65;;;;;;;15.54;100.00;98921.53;5048050;28;20098;-78
2023/08/03 00:20:52;;;;;;;5.32;2.50;;;;;;;15.55;100.00;98923.16;5045513;28;20370;-77
2023/08/03 00:23:17;;;;;;;7.88;3.38;;;;;;;15.56;100.00;98922.16;5041442;28;20029;-78
2023/08/03 00:25:42;;;;;;;8.60;4.05;;;;;;;15.58;100.00;98925.47;5048354;28;20143;-78
2023/08/03 00:28:08;;;;;;;12.60;4.00;;;;;;;15.59;100.00;98932.41;5032202;28;20078;-78
2023/08/03 00:30:33;;;;;;;10.88;3.70;;;;;;;15.58;100.00;98939.53;5037068;28;20035;-77
2023/08/03 00:32:58;;;;;;;11.63;4.38;;;;;;;15.60;100.00;98945.47;5028295;28;20535;-78
2023/08/03 00:35:24;;;;;;;10.30;4.70;;;;;;;15.62;100.00;98947.94;5029941;28;20025;-78
2023/08/03 00:37:51;;;;;;;10.40;4.57;;;;;;;15.63;100.00;98954.88;5032897;28;20468;-79
2023/08/03 00:40:17;;;;;;;14.38;5.47;;;;;;;15.64;100.00;98956.53;5047181;28;20024;-78
2023/08/03 00:42:42;;;;;;;10.20;5.82;;;;;;;15.66;100.00;98952.66;5030484;28;20544;-76
2023/08/03 00:45:10;;;;;;;12.23;5.85;;;;;;;15.64;100.00;98978.56;5022560;28;20064;-75
2023/08/03 00:47:35;;;;;;;16.15;6.47;;;;;;;15.64;100.00;98978.56;5038899;28;20033;-74
2023/08/03 00:50:01;;;;;;;10.05;5.90;;;;;;;15.63;100.00;98976.91;5031469;28;20239;-75
2023/08/03 00:52:27;;;;;;;14.50;6.50;;;;;;;15.63;100.00;98984.06;5028007;28;20041;-75
2023/08/03 00:54:52;;;;;;;16.35;7.18;;;;;;;15.63;100.00;98992.81;5026927;28;20024;-75
2023/08/03 00:57:17;;;;;;;11.05;7.32;;;;;;;15.63;100.00;98997.31;5044990;28;20068;-76
2023/08/03 00:59:44;;;;;;;12.48;7.40;;;;;;;15.64;100.00;98999.75;5033334;28;20038;-76
2023/08/03 01:02:09;;;;;;;14.75;8.07;;;;;;;15.64;100.00;99001.59;5041957;28;20386;-76
2023/08/03 01:04:35;;;;;;;15.80;8.27;;;;;;;15.65;100.00;99009.38;5026984;28;20033;-76
2023/08/03 01:07:00;;;;;;;14.63;7.63;;;;;;;15.65;100.00;99006.72;5040143;28;20443;-76
2023/08/03 01:09:25;;;;;;;14.30;7.88;;;;;;;15.66;100.00;99008.34;5046118;28;20064;-76
2023/08/03 01:11:51;;;;;;;13.68;7.90;;;;;;;15.69;100.00;99008.97;5043591;28;20120;-76
2023/08/03 01:14:16;;;;;;;13.40;8.35;;;;;;;15.69;100.00;99014.28;5048507;28;20049;-76
2023/08/03 01:16:45;;;;;;;15.02;7.80;;;;;;;15.72;100.00;99019.19;5030274;28;20064;-76
2023/08/03 01:19:12;;;;;;;13.00;8.48;;;;;;;15.71;100.00;99026.34;5024987;28;20064;-75
2023/08/03 01:21:39;;;;;;;14.48;7.50;;;;;;;15.72;100.00;99024.50;5029373;28;20492;-75
2023/08/03 01:24:04;;;;;;;16.25;8.40;;;;;;;15.75;100.00;99042.69;5043328;28;20024;-76
2023/08/03 01:26:30;;;;;;;12.65;6.95;;;;;;;15.75;100.00;99042.69;5041562;28;20048;-76
2023/08/03 01:28:55;;;;;;;12.30;6.88;;;;;;;15.77;100.00;99045.97;5038782;28;20075;-75
2023/08/03 01:31:21;;;;;;;12.75;6.95;;;;;;;15.77;100.00;99045.97;5029045;28;20061;-76
2023/08/03 01:33:46;;;;;;;13.27;6.90;;;;;;;15.78;100.00;99042.28;5028257;28;20797;-77
2023/08/03 01:36:12;;;;;;;12.25;6.03;;;;;;;15.78;100.00;99048.41;5022421;28;20037;-76
2023/08/03 01:38:37;;;;;;;12.30;6.22;;;;;;;15.78;100.00;99058.19;5038037;28;20033;-76
2023/08/03 01:41:05;;;;;;;9.43;5.68;;;;;;;15.79;100.00;99059.84;5043651;28;20032;-76
2023/08/03 01:43:30;;;;;;;11.07;5.35;;;;;;;15.78;100.00;99058.19;5028120;28;20033;-76
2023/08/03 01:45:56;;;;;;;11.98;5.00;;;;;;;15.78;100.00;99052.91;5027738;28;20582;-76
2023/08/03 01:48:21;;;;;;;10.60;5.25;;;;;;;15.78;100.00;99061.69;5026872;28;20442;-76
2023/08/03 01:50:46;;;;;;;9.48;4.57;;;;;;;15.77;100.00;99061.88;5036905;28;20770;-76
2023/08/03 01:53:15;;;;;;;13.50;4.20;;;;;;;15.76;100.00;99060.22;5024923;28;20026;-76
2023/08/03 01:55:40;;;;;;;8.77;3.58;;;;;;;15.76;100.00;99052.28;5036465;28;20100;-76
2023/08/03 01:58:06;;;;;;;10.00;3.80;;;;;;;15.76;100.00;99068.19;5049208;28;20131;-76
2023/08/03 02:00:31;;;;;;;9.85;3.30;;;;;;;15.76;100.00;99061.06;5051071;28;20480;-77
2023/08/03 02:02:56;;;;;;;6.63;2.92;;;;;;;15.75;100.00;99056.75;5050403;28;20606;-77
2023/08/03 02:05:22;;;;;;;8.73;2.83;;;;;;;15.75;100.00;99063.91;5038806;28;20458;-77
2023/08/03 02:07:53;;;;;;;7.70;2.78;;;;;;;15.74;100.00;99073.69;5024046;28;20053;-77
2023/08/03 02:10:20;;;;;;;11.95;3.58;;;;;;;15.73;100.00;99073.88;5029312;28;20029;-77
2023/08/03 02:12:45;;;;;;;9.73;3.70;;;;;;;15.72;100.00;99058.97;5030724;28;20021;-77
2023/08/03 02:15:12;;;;;;;12.00;4.05;;;;;;;15.69;100.00;99057.53;5028800;28;20491;-77
2023/08/03 02:17:38;;;;;;;11.13;4.50;;;;;;;15.69;100.00;99062.00;5042159;28;20030;-78
2023/08/03 02:20:03;;;;;;;16.95;4.95;;;;;;;15.69;100.00;99056.69;5063560;28;20028;-77
2023/08/03 02:22:28;;;;;;;16.65;4.60;;;;;;;15.67;100.00;99062.19;5061880;28;20030;-76
2023/08/03 02:24:54;;;;;;;14.70;4.65;;;;;;;15.66;100.00;99061.38;5027488;28;20071;-77
2023/08/03 02:27:19;;;;;;;19.23;5.40;;;;;;;15.65;100.00;99065.03;5030573;28;20064;-77
2023/08/03 02:29:45;;;;;;;19.30;5.53;;;;;;;15.64;100.00;99052.78;5048590;28;20059;-77
2023/08/03 02:32:10;;;;;;;15.93;5.63;;;;;;;15.65;100.00;99059.75;5051220;28;20472;-77
2023/08/03 02:34:35;;;;;;;19.38;5.82;;;;;;;15.66;100.00;99053.41;5056571;28;20132;-77
2023/08/03 02:37:00;;;;;;;22.30;5.93;;;;;;;15.67;100.00;99056.91;5045140;28;20064;-77
2023/08/03 02:39:26;;;;;;;19.95;5.47;;;;;;;15.66;100.00;99074.63;5051424;28;20029;-77
2023/08/03 02:41:52;;;;;;;20.00;5.68;;;;;;;15.64;100.00;99066.06;5043050;28;20492;-78
2023/08/03 02:44:18;;;;;;;20.50;5.75;;;;;;;15.66;100.00;99064.03;5028213;28;20481;-78
2023/08/03 02:46:44;;;;;;;18.42;5.53;;;;;;;15.65;100.00;99053.63;5037018;28;20040;-78
2023/08/03 02:49:09;;;;;;;20.30;5.70;;;;;;;15.65;100.00;99057.09;5050071;28;20029;-78
2023/08/03 02:51:34;;;;;;;18.80;5.88;;;;;;;15.64;100.00;99058.09;5048125;28;20417;-78
2023/08/03 02:54:00;;;;;;;19.63;5.43;;;;;;;15.65;100.00;99057.09;5047129;28;20032;-79
2023/08/03 02:56:25;;;;;;;17.73;5.20;;;;;;;15.65;100.00;99069.53;5038426;28;20053;-79
2023/08/03 02:58:50;;;;;;;23.25;5.75;;;;;;;15.63;100.00;99067.06;5032352;28;20029;-79
2023/08/03 03:01:16;;;;;;;17.17;4.80;;;;;;;15.62;100.00;99064.59;5028730;28;20481;-80
2023/08/03 03:03:43;;;;;;;17.15;5.10;;;;;;;15.63;100.00;99066.25;5048917;28;20071;-78
2023/08/03 03:06:08;;;;;;;19.63;5.63;;;;;;;15.62;100.00;99070.72;5046893;28;20174;-79
2023/08/03 03:08:34;;;;;;;20.00;5.30;;;;;;;15.60;100.00;99067.41;5048980;28;20112;-79
2023/08/03 03:10:59;;;;;;;17.58;5.35;;;;;;;15.60;100.00;99080.66;5048195;28;20028;-79
2023/08/03 03:13:25;;;;;;;17.60;4.80;;;;;;;15.62;100.00;99080.50;5047694;28;20061;-79
2023/08/03 03:15:50;;;;;;;14.40;4.63;;;;;;;15.60;100.00;99078.00;5032456;28;20025;-79
2023/08/03 03:18:15;;;;;;;16.58;5.28;;;;;;;15.60;100.00;99088.63;5040825;28;20500;-78
2023/08/03 03:20:41;;;;;;;25.33;5.70;;;;;;;15.59;100.00;99086.97;5047935;28;20037;-76
2023/08/03 03:23:09;;;;;;;17.67;5.07;;;;;;;15.56;100.00;99082.03;5051037;28;20493;-77
2023/08/03 03:25:34;;;;;;;20.45;4.97;;;;;;;15.52;100.00;99091.38;5047103;28;20394;-77
2023/08/03 03:28:04;;;;;;;16.63;4.88;;;;;;;15.52;100.00;99086.06;5034436;28;20070;-77
2023/08/03 03:30:30;;;;;;;15.32;4.97;;;;;;;15.50;100.00;99092.56;5049665;28;20040;-77
2023/08/03 03:32:56;;;;;;;16.08;4.70;;;;;;;15.49;100.00;99099.69;5030413;28;20107;-77
2023/08/03 03:35:21;;;;;;;14.27;4.60;;;;;;;15.50;100.00;99114.59;5029967;28;20100;-78
2023/08/03 03:37:46;;;;;;;11.52;4.28;;;;;;;15.49;100.00;99112.94;5039061;28;20025;-77
2023/08/03 03:40:12;;;;;;;14.63;4.57;;;;;;;15.50;100.00;99114.59;5050300;28;20470;-77
2023/08/03 03:42:37;;;;;;;13.60;4.57;;;;;;;15.49;100.00;99118.25;5042922;28;20166;-77
2023/08/03 03:45:03;;;;;;;15.65;3.88;;;;;;;15.49;100.00;99112.13;5040065;28;20050;-77
2023/08/03 03:47:28;;;;;;;13.70;4.15;;;;;;;15.49;100.00;99112.13;5029097;28;20048;-77
2023/08/03 03:49:53;;;;;;;16.85;4.22;;;;;;;15.48;100.00;99126.38;5024036;28;20079;-77
2023/08/03 03:52:19;;;;;;;13.32;4.10;;;;;;;15.46;100.00;99131.88;5038183;28;20086;-77
2023/08/03 03:54:44;;;;;;;14.02;4.00;;;;;;;15.47;100.00;99141.47;5046233;28;20021;-77
2023/08/03 03:57:09;;;;;;;12.38;3.70;;;;;;;15.48;100.00;99140.47;5036570;28;20041;-79
2023/08/03 03:59:35;;;;;;;12.77;3.70;;;;;;;15.49;100.00;99149.25;5036498;28;20040;-78
2023/08/03 04:02:00;;;;;;;12.00;3.50;;;;;;;15.50;100.00;99149.06;5041982;28;20455;-77
2023/08/03 04:04:25;;;;;;;10.82;3.35;;;;;;;15.48;100.00;99153.72;5044965;28;20022;-77
2023/08/03 04:06:51;;;;;;;11.93;3.80;;;;;;;15.48;100.00;99164.31;5030862;28;20092;-78
2023/08/03 04:09:16;;;;;;;12.10;3.35;;;;;;;15.48;100.00;99158.19;5048609;28;20143;-77
2023/08/03 04:11:41;;;;;;;13.43;3.88;;;;;;;15.47;100.00;99165.34;5049500;28;20112;-78
2023/08/03 04:14:10;;;;;;;12.77;3.33;;;;;;;15.47;100.00;99173.28;5049425;28;20021;-78
2023/08/03 04:16:35;;;;;;;10.20;3.35;;;;;;;15.46;100.00;99176.94;5048094;28;20370;-78
2023/08/03 04:19:01;;;;;;;11.45;3.88;;;;;;;15.46;100.00;99171.63;5046805;28;20251;-78
2023/08/03 04:21:26;;;;;;;11.35;3.10;;;;;;;15.46;100.00;99165.53;5034057;28;20082;-78
2023/08/03 04:23:51;;;;;;;10.38;3.22;;;;;;;15.46;100.00;99178.78;5035846;28;20392;-78
2023/08/03 04:26:17;;;;;;;9.52;3.25;;;;;;;15.46;100.00;99176.13;5041498;28;20437;-77
2023/08/03 04:28:42;;;;;;;12.50;3.50;;;;;;;15.46;100.00;99187.53;5034350;28;20021;-77
2023/08/03 04:31:09;;;;;;;12.07;3.55;;;;;;;15.44;100.00;99189.56;5030936;28;20036;-77
2023/08/03 04:33:34;;;;;;;9.65;3.30;;;;;;;15.43;100.00;99205.66;5062540;28;20040;-77
2023/08/03 04:36:00;;;;;;;9.18;3.13;;;;;;;15.42;100.00;99201.34;5034014;28;20022;-77
2023/08/03 04:38:25;;;;;;;8.27;2.80;;;;;;;15.41;100.00;99205.00;5028551;28;20025;-78
2023/08/03 04:40:50;;;;;;;7.03;2.97;;;;;;;15.40;100.00;99225.41;5024447;28;20033;-77
2023/08/03 04:43:16;;;;;;;6.93;2.60;;;;;;;15.40;100.00;99222.75;5021419;28;20108;-77
2023/08/03 04:45:44;;;;;;;8.10;2.50;;;;;;;15.38;100.00;99232.72;5045304;28;20083;-77
2023/08/03 04:48:09;;;;;;;7.50;2.13;;;;;;;15.39;100.00;99223.75;5048607;28;20738;-77
2023/08/03 04:50:35;;;;;;;6.55;2.35;;;;;;;15.41;100.00;99234.16;5045414;28;20116;-77
2023/08/03 04:53:00;;;;;;;5.68;2.22;;;;;;;15.43;100.00;99226.84;5034880;28;20106;-77
2023/08/03 04:55:26;;;;;;;6.07;2.40;;;;;;;15.42;100.00;99233.97;5015223;28;20106;-77
2023/08/03 04:57:51;;;;;;;5.63;2.10;;;;;;;15.44;100.00;99239.91;5028041;28;20118;-78
2023/08/03 05:00:17;;;;;;;5.50;2.63;;;;;;;15.45;100.00;99244.22;5040461;28;20048;-78
2023/08/03 05:02:42;;;;;;;6.45;2.70;;;;;;;15.45;100.00;99243.38;5026598;28;20087;-77
2023/08/03 05:05:10;;;;;;;4.97;2.88;;;;;;;15.46;100.00;99251.16;5028846;28;20091;-78
2023/08/03 05:07:36;;;;;;;7.20;2.40;;;;;;;15.45;100.00;99249.50;5030961;28;20397;-77
2023/08/03 05:10:01;;;;;;;7.05;2.80;;;;;;;15.47;100.00;99252.81;5026604;28;20120;-78
2023/08/03 05:12:26;;;;;;;6.47;2.35;;;;;;;15.48;100.00;99265.06;5026926;28;20040;-79
2023/08/03 05:14:52;;;;;;;6.45;2.00;;;;;;;15.50;100.00;99268.34;5020208;28;20036;-79
2023/08/03 05:17:17;;;;;;;6.20;1.95;;;;;;;15.53;100.00;99270.63;5028473;28;20034;-79
2023/08/03 05:19:42;;;;;;;9.30;1.88;;;;;;;15.53;100.00;99278.56;5058966;28;20033;-79
2023/08/03 05:22:08;;;;;;;8.35;2.20;;;;;;;15.57;100.00;99290.44;5039255;28;20033;-79
2023/08/03 05:24:33;;;;;;;9.43;1.88;;;;;;;15.59;100.00;99287.66;5034559;28;20029;-79
2023/08/03 05:26:58;;;;;;;5.85;1.77;;;;;;;15.57;100.00;99285.16;5041650;28;20070;-79
2023/08/03 05:29:25;;;;;;;9.55;2.10;;;;;;;15.58;100.00;99299.25;5036029;28;20515;-79
2023/08/03 05:31:50;;;;;;;8.35;2.13;;;;;;;15.57;100.00;99293.09;5030090;28;20025;-79
2023/08/03 05:34:15;;;;;;;8.88;2.28;;;;;;;15.57;100.00;99301.06;5039341;28;20663;-79
2023/08/03 05:36:44;;;;;;;9.43;2.35;;;;;;;15.60;100.00;99299.91;5048837;28;20044;-79
2023/08/03 05:39:10;;;;;;;10.52;2.50;;;;;;;15.63;100.00;99304.84;5050290;28;20037;-80
2023/08/03 05:41:35;;;;;;;12.95;2.50;;;;;;;15.65;100.00;99314.28;5053155;28;20021;-80
2023/08/03 05:44:01;;;;;;;11.00;2.13;;;;;;;15.68;100.00;99309.59;5031497;28;20033;-79
2023/08/03 05:46:31;;;;;;;9.07;2.30;;;;;;;15.69;100.00;99324.50;5031806;28;20568;-80
2023/08/03 05:48:56;;;;;;;10.65;2.38;;;;;;;15.70;100.00;99326.97;5029424;28;20040;-81
2023/08/03 05:51:27;;;;;;;8.85;2.10;;;;;;;15.72;100.00;99324.97;5040019;28;20049;-79
2023/08/03 05:53:56;;;;;;;8.57;2.35;;;;;;;15.74;100.00;99322.13;5044065;28;20024;-79
2023/08/03 05:56:23;;;;;;;9.35;2.08;;;;;;;15.75;100.00;99345.00;5051123;28;20024;-79
2023/08/03 05:58:50;;;;;;;9.18;2.05;;;;;;;15.76;100.00;99338.69;5049029;28;20029;-79
2023/08/03 06:01:20;;;;;;;8.35;1.90;;;;;;;15.73;100.00;99347.00;5037473;28;20033;-80
2023/08/03 06:03:46;;;;;;;8.25;1.95;;;;;;;15.73;100.00;99347.81;5041381;28;20032;-79
2023/08/03 06:06:15;;;;;;;9.90;2.35;;;;;;;15.73;100.00;99345.16;5019556;28;20025;-79
2023/08/03 06:08:46;;;;;;;9.32;2.28;;;;;;;15.76;100.00;99354.59;5040166;28;20022;-81
2023/08/03 06:11:12;;;;;;;10.45;2.13;;;;;;;15.80;100.00;99356.69;5024576;28;20025;-80
2023/08/03 06:13:38;;;;;;;8.55;2.35;;;;;;;15.82;100.00;99356.50;5039911;28;20040;-80
2023/08/03 06:16:10;;;;;;;8.35;2.08;;;;;;;15.84;100.00;99365.91;5046527;28;20025;-80
2023/08/03 06:18:55;;;;;;;12.32;2.20;;;;;;;15.86;100.00;99371.03;5051235;28;20481;-79
2023/08/03 06:21:23;;;;;;;10.65;2.63;;;;;;;15.87;100.00;99383.28;5017676;28;20029;-80
2023/08/03 06:23:54;;;;;;;7.85;2.42;;;;;;;15.88;100.00;99377.81;5024213;28;20092;-80
2023/08/03 06:26:21;;;;;;;12.77;2.63;;;;;;;15.88;100.00;99376.97;5015821;28;20037;-80
2023/08/03 06:28:49;;;;;;;10.05;2.35;;;;;;;15.84;100.00;99381.00;5021393;28;20029;-82
2023/08/03 06:31:17;;;;;;;9.23;2.40;;;;;;;15.84;100.00;99378.34;5024432;28;20033;-80
2023/08/03 06:33:44;;;;;;;9.82;2.30;;;;;;;15.84;100.00;99387.13;5024377;28;20037;-80
2023/08/03 06:36:19;;;;;;;9.57;2.13;;;;;;;15.86;100.00;99384.31;5024867;28;20025;-79
2023/08/03 06:38:44;;;;;;;11.52;2.40;;;;;;;15.83;100.00;99390.78;5034612;28;20041;-79
2023/08/03 06:41:10;;;;;;;8.43;2.20;;;;;;;15.83;100.00;99403.25;5028354;28;20037;-80
2023/08/03 06:43:36;;;;;;;8.05;2.33;;;;;;;15.83;100.00;99398.75;5031587;28;20029;-79
2023/08/03 06:46:02;;;;;;;9.05;2.28;;;;;;;15.84;100.00;99416.31;5040166;28;20513;-81
2023/08/03 06:48:28;;;;;;;10.95;2.40;;;;;;;15.86;100.00;99401.03;5040366;28;20029;-80
2023/08/03 06:50:54;;;;;;;9.05;2.20;;;;;;;15.86;100.00;99416.13;5030942;28;20044;-80
2023/08/03 06:53:19;;;;;;;7.47;1.80;;;;;;;15.89;100.00;99415.75;5040287;28;20055;-80
2023/08/03 06:55:48;;;;;;;6.22;1.70;;;;;;;15.88;100.00;99428.19;5034890;28;20036;-79
2023/08/03 06:58:17;;;;;;;9.10;1.83;;;;;;;15.89;100.00;99442.28;5040165;28;20029;-80
2023/08/03 07:00:44;;;;;;;5.32;1.60;;;;;;;15.95;100.00;99441.56;5034743;28;20492;-78
2023/08/03 07:03:10;;;;;;;5.50;1.70;;;;;;;16.00;100.00;99439.19;5044497;28;20025;-79
2023/08/03 07:05:35;;;;;;;6.72;1.50;;;;;;;16.04;100.00;99439.66;5032398;28;20029;-79
2023/08/03 07:08:01;;;;;;;4.50;1.40;;;;;;;16.07;100.00;99450.72;5032514;28;20930;-79
2023/08/03 07:10:26;;;;;;;6.15;1.70;;;;;;;16.10;100.00;99450.38;5033345;28;20037;-79
2023/08/03 07:12:52;;;;;;;5.47;1.58;;;;;;;16.17;100.00;99471.69;5030662;28;20021;-78
2023/08/03 07:15:18;;;;;;;6.80;1.83;;;;;;;16.23;100.00;99457.66;5031044;28;20017;-78
2023/08/03 07:17:43;;;;;;;8.25;2.10;;;;;;;16.25;100.00;99469.75;5030921;28;20036;-78
2023/08/03 07:20:09;;;;;;;6.82;1.65;;;;;;;16.30;100.00;99467.38;5031038;28;20079;-79
2023/08/03 07:22:36;;;;;;;6.57;1.92;;;;;;;16.33;100.00;99470.66;5025736;28;20042;-79
2023/08/03 07:25:02;;;;;;;5.97;1.80;;;;;;;16.34;100.00;99477.59;5023106;28;20126;-78
2023/08/03 07:27:27;;;;;;;12.85;2.08;;;;;;;16.34;100.00;99485.56;5044144;28;20099;-78
2023/08/03 07:29:53;;;;;;;6.70;1.88;;;;;;;16.33;100.00;99481.28;5025526;28;20032;-79
2023/08/03 07:32:18;;;;;;;8.68;2.30;;;;;;;16.39;100.00;99485.84;5044517;28;20032;-79
2023/08/03 07:34:44;;;;;;;9.18;2.20;;;;;;;16.58;100.00;99482.63;5030578;28;20358;-79
2023/08/03 07:37:09;;;;;;;8.77;2.20;;;;;;;16.71;100.00;99490.78;5044762;28;20048;-79
2023/08/03 07:39:34;;;;;;;9.45;2.20;;;;;;;16.85;100.00;99487.28;5029084;28;20120;-79
2023/08/03 07:42:00;;;;;;;10.18;2.38;;;;;;;16.85;100.00;99491.78;5029227;28;20030;-79
2023/08/03 07:44:26;;;;;;;11.82;2.53;;;;;;;16.79;100.00;99498.63;5030003;28;20046;-79
2023/08/03 07:46:51;;;;;;;7.03;2.10;;;;;;;16.82;100.00;99492.97;5029524;28;20109;-79
2023/08/03 07:49:16;;;;;;;8.30;2.40;;;;;;;16.84;100.00;99496.28;5035257;28;20389;-78
2023/08/03 07:51:44;;;;;;;8.80;2.30;;;;;;;16.81;100.00;99512.59;5038598;28;20389;-78
2023/08/03 07:54:09;;;;;;;7.30;2.13;;;;;;;16.73;100.00;99515.31;5029315;28;20033;-78
2023/08/03 07:56:35;;;;;;;14.20;2.88;;;;;;;16.69;100.00;99508.75;5029296;28;20366;-78
2023/08/03 07:59:01;;;;;;;7.78;2.00;;;;;;;16.60;100.00;99520.44;5039379;28;20035;-78
2023/08/03 08:01:27;;;;;;;10.07;2.63;;;;;;;16.54;100.00;99522.03;5048172;28;20024;-78
2023/08/03 08:03:52;;;;;;;11.82;2.58;;;;;;;16.50;100.00;99530.53;5034145;28;20033;-78
2023/08/03 08:06:20;;;;;;;12.77;2.72;;;;;;;16.40;100.00;99535.28;5033220;28;20025;-78
2023/08/03 08:08:47;;;;;;;10.90;2.55;;;;;;;16.36;100.00;99544.63;5044644;28;20037;-78
2023/08/03 08:11:15;;;;;;;13.05;3.00;;;;;;;16.29;100.00;99550.66;5029826;28;20025;-78
2023/08/03 08:13:43;;;;;;;12.35;2.40;;;;;;;16.26;100.00;99556.34;5029786;28;20441;-78
2023/08/03 08:16:11;;;;;;;12.40;2.53;;;;;;;16.19;100.00;99560.72;5028806;28;20021;-78
2023/08/03 08:18:39;;;;;;;9.80;2.10;;;;;;;16.18;100.00;99558.25;5028989;28;20398;-78
2023/08/03 08:21:12;;;;;;;11.35;2.47;;;;;;;16.22;100.00;99556.88;5044898;28;20123;-78
2023/08/03 08:23:39;;;;;;;8.77;2.28;;;;;;;16.25;100.00;99570.59;5050169;28;20544;-79
2023/08/03 08:26:10;;;;;;;10.63;2.13;;;;;;;16.26;100.00;99566.94;5033733;28;20057;-77
2023/08/03 08:28:35;;;;;;;9.68;2.78;;;;;;;16.30;100.00;99578.84;5029304;28;20036;-77
2023/08/03 08:31:01;;;;;;;9.25;2.22;;;;;;;16.34;100.00;99589.09;5028353;28;20021;-77
2023/08/03 08:33:26;;;;;;;8.77;2.42;;;;;;;16.32;100.00;99593.78;5029770;28;20100;-77
2023/08/03 08:35:51;;;;;;;7.18;1.98;;;;;;;16.33;100.00;99592.75;5028876;28;20432;-78
2023/08/03 08:38:17;;;;;;;10.13;2.38;;;;;;;16.37;100.00;99594.03;5029710;28;20079;-79
2023/08/03 08:40:44;;;;;;;10.00;2.25;;;;;;;16.37;100.00;99602.00;5027883;28;20025;-78
2023/08/03 08:43:10;;;;;;;7.38;2.10;;;;;;;16.42;100.00;99602.31;5029094;28;20025;-79
2023/08/03 08:45:37;;;;;;;8.45;2.17;;;;;;;16.41;100.00;99611.25;5029421;28;20056;-78
2023/08/03 08:48:04;;;;;;;7.97;1.98;;;;;;;16.41;100.00;99613.91;5029143;28;20109;-78
2023/08/03 08:50:30;;;;;;;7.57;1.85;;;;;;;16.42;100.00;99618.25;5027717;28;20044;-78
2023/08/03 08:52:57;;;;;;;7.53;1.48;;;;;;;16.46;100.00;99619.53;5028972;28;20489;-78
2023/08/03 08:55:30;;;;;;;5.38;1.48;;;;;;;16.48;100.00;99628.97;5028303;28;20022;-79
2023/08/03 08:57:57;;;;;;;9.52;1.77;;;;;;;16.47;100.00;99627.31;5029255;28;20370;-78
2023/08/03 09:00:24;;;;;;;4.47;1.42;;;;;;;16.47;100.00;99637.13;5047015;28;20075;-78
2023/08/03 09:02:54;;;;;;;4.65;1.20;;;;;;;16.42;100.00;99644.81;5051535;28;20029;-78
2023/08/03 09:05:21;;;;;;;3.22;1.20;;;;;;;16.34;100.00;99652.81;5034097;28;20112;-79
2023/08/03 09:08:10;;;;;;;10.35;1.60;;;;;;;16.34;100.00;99647.50;5032335;28;20017;-79
2023/08/03 09:10:53;;;;;;;4.70;1.25;;;;;;;16.28;100.00;99663.16;5031715;28;20029;-78
2023/08/03 09:13:32;;;;;;;2.40;1.02;;;;;;;16.25;100.00;99676.78;5032622;28;20029;-78
2023/08/03 09:15:59;;;;;;;2.47;1.00;;;;;;;16.27;100.00;99674.78;5052828;28;20021;-78
2023/08/03 09:18:27;;;;;;;3.67;1.17;;;;;;;16.34;100.00;99679.38;5050934;28;20036;-78
2023/08/03 09:21:12;;;;;;;3.83;1.00;;;;;;;16.47;100.00;99687.56;5022694;28;20032;-78
2023/08/03 09:23:37;;;;;;;4.53;1.35;;;;;;;16.47;100.00;99690.22;5048631;28;20029;-78
2023/08/03 09:26:04;;;;;;;4.13;1.10;;;;;;;16.50;100.00;99700.47;5048299;28;20365;-78
2023/08/03 09:28:39;;;;;;;4.45;1.50;;;;;;;16.50;100.00;99706.63;5043449;28;20745;-78
2023/08/03 09:31:05;;;;;;;3.92;1.33;;;;;;;16.52;100.00;99714.41;5012268;28;20501;-78
2023/08/03 09:33:32;;;;;;;5.85;1.70;;;;;;;16.56;100.00;99721.00;5021252;28;20036;-78
2023/08/03 09:36:05;;;;;;;5.68;1.70;;;;;;;16.54;100.00;99723.84;5045486;28;20029;-78
2023/08/03 09:38:31;;;;;;;7.47;2.10;;;;;;;16.58;100.00;99730.44;5051914;28;20361;-78
2023/08/03 09:40:57;;;;;;;9.45;2.30;;;;;;;16.61;100.00;99731.91;5031725;28;20476;-78
2023/08/03 09:43:24;;;;;;;10.02;2.63;;;;;;;16.64;100.00;99739.50;5032677;28;20470;-78
2023/08/03 09:45:51;;;;;;;9.13;2.83;;;;;;;16.71;100.00;99745.78;5043260;28;20060;-78
2023/08/03 09:48:18;;;;;;;10.40;2.80;;;;;;;16.79;100.00;99747.53;5052313;28;20056;-78
2023/08/03 09:50:49;;;;;;;6.93;2.33;;;;;;;16.86;100.00;99757.28;5046634;28;20088;-78
2023/08/03 09:53:19;;;;;;;8.43;2.78;;;;;;;16.89;100.00;99759.56;5034990;28;20029;-78
2023/08/03 09:55:49;;;;;;;8.35;2.50;;;;;;;16.89;100.00;99764.88;5061229;28;20473;-79
2023/08/03 09:58:16;;;;;;;12.52;2.67;;;;;;;16.95;100.00;99767.81;5031501;28;20029;-78
2023/08/03 10:00:44;;;;;;;10.20;2.47;;;;;;;16.98;100.00;99765.63;5029842;28;20041;-79
2023/08/03 10:03:13;;;;;;;12.00;2.67;;;;;;;17.04;100.00;99777.38;5030677;28;20025;-77
2023/08/03 10:05:49;;;;;;;11.38;2.40;;;;;;;17.12;100.00;99774.63;5028364;28;20044;-77
2023/08/03 10:08:40;;;;;;;7.38;2.53;;;;;;;17.17;100.00;99790.84;5037534;28;20032;-76
2023/08/03 10:11:10;;;;;;;10.77;2.42;;;;;;;17.27;100.00;99786.09;5047947;28;20036;-79
2023/08/03 10:13:43;;;;;;;6.85;2.30;;;;;;;17.39;100.00;99789.97;5050660;28;20021;-79
2023/08/03 10:16:11;;;;;;;;;;;;;;;17.59;100.00;99790.22;5051630;28;20025;-78
2023/08/03 10:18:37;;;;;;;9.77;2.17;;;;;;;17.97;100.00;99798.91;5036925;28;19917;-78
2023/08/03 10:21:04;;;;;;;9.57;2.33;;;;;;;18.32;100.00;99799.09;5020903;28;20017;-78
2023/08/03 10:23:29;;;;;;;7.35;1.92;;;;;;;18.61;100.00;99791.00;5030091;28;20040;-78
2023/08/03 10:26:00;;;;;;;6.72;1.77;;;;;;;18.84;100.00;99798.81;5031267;28;20378;-78
2023/08/03 10:28:26;;;;;;;7.78;1.60;;;;;;;19.00;100.00;99797.69;5029521;28;20044;-78
2023/08/03 10:31:05;;;;;;;5.60;1.73;;;;;;;19.16;100.00;99802.72;5030988;28;20051;-78
2023/08/03 10:33:46;;;;;;;4.35;1.45;;;;;;;19.32;100.00;99805.13;5032932;28;20030;-79
2023/08/03 10:36:46;;;;;;;6.45;1.42;;;;;;;19.44;100.00;99812.56;5031292;28;20022;-78
2023/08/03 10:39:35;;;;;;;4.78;1.52;;;;;;;19.27;100.00;99810.22;5023327;28;20050;-78
2023/08/03 10:42:19;;;;;;;7.60;1.70;;;;;;;19.35;100.00;99811.91;5032637;28;20031;-78
2023/08/03 10:44:44;;;;;;;6.95;1.65;;;;;;;19.32;100.00;99813.13;5045515;28;20052;-77
2023/08/03 10:47:25;;;;;;;6.75;1.85;;;;;;;19.53;100.00;99822.09;5030988;28;20128;-79
2023/08/03 10:49:52;;;;;;;7.35;1.98;;;;;;;19.64;100.00;99821.56;5034519;28;20479;-80
2023/08/03 10:52:20;;;;;;;9.10;2.00;;;;;;;19.61;100.00;99828.13;5031408;28;20049;-79
2023/08/03 10:54:47;;;;;;;5.80;1.73;;;;;;;19.63;100.00;99838.59;5031816;28;20026;-79
2023/08/03 10:57:13;;;;;;;5.50;1.85;;;;;;;19.64;100.00;99829.56;5034036;28;20192;-79
2023/08/03 10:59:45;;;;;;;7.35;2.22;;;;;;;19.63;100.00;99843.94;5042490;28;20028;-79
2023/08/03 11:02:14;;;;;;;6.22;2.00;;;;;;;19.66;100.00;99841.69;5030347;28;20112;-79
2023/08/03 11:04:40;;;;;;;7.40;2.17;;;;;;;19.45;100.00;99856.91;5030436;28;20083;-79
2023/08/03 11:07:10;;;;;;;6.65;1.98;;;;;;;19.26;100.00;99864.56;5029790;28;20025;-79
2023/08/03 11:09:36;;;;;;;7.38;2.05;;;;;;;19.27;100.00;99860.91;5029783;28;20025;-80
2023/08/03 11:12:03;;;;;;;7.13;2.30;;;;;;;19.26;100.00;99861.91;5023326;28;20017;-80
2023/08/03 11:14:29;;;;;;;9.10;2.30;;;;;;;19.19;100.00;99866.34;5030842;28;20029;-79
2023/08/03 11:16:55;;;;;;;8.52;2.20;;;;;;;19.05;100.00;99864.59;5028933;28;20024;-80
2023/08/03 11:19:23;;;;;;;11.38;2.42;;;;;;;18.83;100.00;99876.31;5029088;28;20060;-79
2023/08/03 11:21:49;;;;;;;8.40;2.80;;;;;;;18.62;100.00;99875.25;5029163;28;20057;-79